Time,TemperatureF,DewpointF,PressureIn,WindDirection,WindDirectionDegrees,WindSpeedMPH,WindSpeedGustMPH,Humidity,HourlyPrecipIn,Conditions,Clouds,dailyrainin,SoftwareType,DateUTC
2013-03-15 00:02:00,4.0,-9.0,30.13,SW,215,0.0,0.0,54,0.00,,,0.00,,2013-03-15 08:02:00,
2013-03-15 00:12:00,4.0,-9.0,30.13,SW,215,0.0,0.0,54,0.00,,,0.00,,2013-03-15 08:12:00,
2013-03-15 00:22:00,3.0,-10.0,30.12,SW,215,0.0,1.0,54,0.00,,,0.00,,2013-03-15 08:22:00,
2013-03-15 00:32:00,3.0,-10.0,30.12,SW,215,0.0,1.0,54,0.00,,,0.00,,2013-03-15 08:32:00,
2013-03-15 00:42:00,3.0,-10.0,30.12,SW,215,0.0,1.0,54,0.00,,,0.00,,2013-03-15 08:42:00,
2013-03-15 00:52:00,1.0,-11.0,30.12,SW,215,0.0,0.0,56,0.00,,,0.00,,2013-03-15 08:52:00,
2013-03-15 01:02:00,1.0,-11.0,30.12,SW,215,0.0,0.0,56,0.00,,,0.00,,2013-03-15 09:02:00,
2013-03-15 01:12:00,1.0,-11.0,30.12,SW,215,0.0,0.0,56,0.00,,,0.00,,2013-03-15 09:12:00,
2013-03-15 01:21:00,-1.0,-12.0,30.11,SW,215,0.0,1.0,58,0.00,,,0.00,,2013-03-15 09:21:00,
2013-03-15 01:33:00,-1.0,-12.0,30.11,SW,215,0.0,1.0,58,0.00,,,0.00,,2013-03-15 09:33:00,
2013-03-15 01:42:00,-1.0,-12.0,30.11,SW,215,0.0,1.0,58,0.00,,,0.00,,2013-03-15 09:42:00,
2013-03-15 01:52:00,-1.0,-11.0,30.11,SW,215,0.0,0.0,61,0.00,,,0.00,,2013-03-15 09:52:00,
2013-03-15 02:02:00,-1.0,-11.0,30.11,SW,215,0.0,0.0,61,0.00,,,0.00,,2013-03-15 10:02:00,
2013-03-15 02:12:00,-1.0,-11.0,30.11,SW,215,0.0,0.0,61,0.00,,,0.00,,2013-03-15 10:12:00,
2013-03-15 02:23:00,-1.0,-11.0,30.10,SW,215,0.0,0.0,60,0.00,,,0.00,,2013-03-15 10:23:00,
2013-03-15 02:32:00,-1.0,-11.0,30.10,SW,215,0.0,0.0,60,0.00,,,0.00,,2013-03-15 10:32:00,
2013-03-15 02:42:00,-1.0,-11.0,30.10,SW,215,0.0,0.0,60,0.00,,,0.00,,2013-03-15 10:42:00,
2013-03-15 02:52:00,-1.0,-11.0,30.09,SW,215,0.0,1.0,60,0.00,,,0.00,,2013-03-15 10:52:00,
2013-03-15 03:02:00,-1.0,-11.0,30.09,SW,215,0.0,1.0,60,0.00,,,0.00,,2013-03-15 11:02:00,
2013-03-15 03:12:00,-1.0,-11.0,30.09,SW,215,0.0,1.0,60,0.00,,,0.00,,2013-03-15 11:12:00,
2013-03-15 03:22:00,-2.0,-13.0,30.09,SW,215,0.0,0.0,59,0.00,,,0.00,,2013-03-15 11:22:00,
2013-03-15 03:32:00,-2.0,-13.0,30.09,SW,215,0.0,0.0,59,0.00,,,0.00,,2013-03-15 11:32:00,
2013-03-15 03:42:00,-2.0,-13.0,30.09,SW,215,0.0,0.0,59,0.00,,,0.00,,2013-03-15 11:42:00,
2013-03-15 03:52:00,-3.0,-13.0,30.08,SW,215,0.0,1.0,61,0.00,,,0.00,,2013-03-15 11:52:00,
2013-03-15 04:02:00,-3.0,-13.0,30.08,SW,215,0.0,1.0,61,0.00,,,0.00,,2013-03-15 12:02:00,
2013-03-15 04:12:00,-3.0,-13.0,30.08,SW,215,0.0,1.0,61,0.00,,,0.00,,2013-03-15 12:12:00,
2013-03-15 04:22:00,-3.0,-13.0,30.08,SW,215,0.0,0.0,61,0.00,,,0.00,,2013-03-15 12:22:00,
2013-03-15 04:32:00,-3.0,-13.0,30.08,SW,215,0.0,0.0,61,0.00,,,0.00,,2013-03-15 12:32:00,
2013-03-15 04:42:00,-3.0,-13.0,30.08,SW,215,0.0,0.0,61,0.00,,,0.00,,2013-03-15 12:42:00,
2013-03-15 04:52:00,-3.0,-13.0,30.07,SW,215,0.0,0.0,62,0.00,,,0.00,,2013-03-15 12:52:00,
2013-03-15 05:02:00,-3.0,-13.0,30.07,SW,215,0.0,0.0,62,0.00,,,0.00,,2013-03-15 13:02:00,
2013-03-15 05:12:00,-3.0,-13.0,30.07,SW,215,0.0,0.0,62,0.00,,,0.00,,2013-03-15 13:12:00,
2013-03-15 05:22:00,-3.0,-13.0,30.06,SW,215,0.0,0.0,61,0.00,,,0.00,,2013-03-15 13:22:00,
2013-03-15 05:32:00,-3.0,-13.0,30.06,SW,215,0.0,0.0,61,0.00,,,0.00,,2013-03-15 13:32:00,
2013-03-15 05:42:00,-3.0,-13.0,30.06,SW,215,0.0,0.0,61,0.00,,,0.00,,2013-03-15 13:42:00,
2013-03-15 05:52:00,-4.0,-14.0,30.05,SW,215,0.0,0.0,62,0.00,,,0.00,,2013-03-15 13:52:00,
2013-03-15 06:02:00,-4.0,-14.0,30.05,SW,215,0.0,0.0,62,0.00,,,0.00,,2013-03-15 14:02:00,
2013-03-15 06:12:00,-4.0,-14.0,30.05,SW,215,0.0,0.0,62,0.00,,,0.00,,2013-03-15 14:12:00,
2013-03-15 06:22:00,-4.0,-13.0,30.05,SW,215,0.0,0.0,63,0.00,,,0.00,,2013-03-15 14:22:00,
2013-03-15 06:32:00,-4.0,-13.0,30.05,SW,215,0.0,0.0,63,0.00,,,0.00,,2013-03-15 14:32:00,
2013-03-15 06:42:00,-4.0,-13.0,30.05,SW,215,0.0,0.0,63,0.00,,,0.00,,2013-03-15 14:42:00,
2013-03-15 06:52:00,-5.0,-15.0,30.04,SW,215,0.0,1.0,62,0.00,,,0.00,,2013-03-15 14:52:00,
2013-03-15 07:02:00,-5.0,-15.0,30.04,SW,215,0.0,1.0,62,0.00,,,0.00,,2013-03-15 15:02:00,
2013-03-15 07:12:00,-5.0,-15.0,30.04,SW,215,0.0,1.0,62,0.00,,,0.00,,2013-03-15 15:12:00,
2013-03-15 07:22:00,-5.0,-15.0,30.04,SW,215,0.0,0.0,62,0.00,,,0.00,,2013-03-15 15:22:00,
2013-03-15 07:33:00,-5.0,-15.0,30.04,SW,215,0.0,0.0,62,0.00,,,0.00,,2013-03-15 15:33:00,
2013-03-15 07:42:00,-5.0,-15.0,30.04,SW,215,0.0,0.0,62,0.00,,,0.00,,2013-03-15 15:42:00,
2013-03-15 07:52:00,-5.0,-15.0,30.03,SW,215,0.0,0.0,62,0.00,,,0.00,,2013-03-15 15:52:00,
2013-03-15 08:02:00,-5.0,-15.0,30.03,SW,215,0.0,0.0,62,0.00,,,0.00,,2013-03-15 16:02:00,
2013-03-15 08:12:00,-5.0,-15.0,30.03,SW,215,0.0,0.0,62,0.00,,,0.00,,2013-03-15 16:12:00,
2013-03-15 08:22:00,-4.0,-14.0,30.03,SW,215,0.0,0.0,62,0.00,,,0.00,,2013-03-15 16:22:00,
2013-03-15 08:32:00,-4.0,-14.0,30.03,SW,215,0.0,0.0,62,0.00,,,0.00,,2013-03-15 16:32:00,
2013-03-15 08:42:00,-4.0,-14.0,30.03,SW,215,0.0,0.0,62,0.00,,,0.00,,2013-03-15 16:42:00,
2013-03-15 08:52:00,-4.0,-14.0,30.02,SW,215,0.0,0.0,62,0.00,,,0.00,,2013-03-15 16:52:00,
2013-03-15 09:02:00,-4.0,-14.0,30.02,SW,215,0.0,0.0,62,0.00,,,0.00,,2013-03-15 17:02:00,
2013-03-15 09:12:00,-4.0,-14.0,30.02,SW,215,0.0,0.0,62,0.00,,,0.00,,2013-03-15 17:12:00,
2013-03-15 09:22:00,-4.0,-14.0,30.02,SW,215,0.0,1.0,62,0.00,,,0.00,,2013-03-15 17:22:00,
2013-03-15 09:32:00,-4.0,-14.0,30.02,SW,215,0.0,1.0,62,0.00,,,0.00,,2013-03-15 17:32:00,
2013-03-15 09:42:00,-4.0,-14.0,30.02,SW,215,0.0,1.0,62,0.00,,,0.00,,2013-03-15 17:42:00,
2013-03-15 09:52:00,-4.0,-14.0,30.01,SW,215,0.0,0.0,61,0.00,,,0.00,,2013-03-15 17:52:00,
2013-03-15 10:02:00,-4.0,-14.0,30.01,SW,215,0.0,0.0,61,0.00,,,0.00,,2013-03-15 18:02:00,
2013-03-15 10:12:00,-4.0,-14.0,30.01,SW,215,0.0,0.0,61,0.00,,,0.00,,2013-03-15 18:12:00,
2013-03-15 10:22:00,-3.0,-13.0,30.00,SW,215,0.0,0.0,60,0.00,,,0.00,,2013-03-15 18:22:00,
2013-03-15 10:32:00,-3.0,-13.0,30.00,SW,215,0.0,0.0,60,0.00,,,0.00,,2013-03-15 18:32:00,
2013-03-15 10:42:00,-3.0,-13.0,30.00,SW,215,0.0,0.0,60,0.00,,,0.00,,2013-03-15 18:42:00,
2013-03-15 10:52:00,1.0,-11.0,29.99,SW,215,0.0,1.0,55,0.00,,,0.00,,2013-03-15 18:52:00,
2013-03-15 11:02:00,1.0,-11.0,29.99,SW,215,0.0,1.0,55,0.00,,,0.00,,2013-03-15 19:02:00,
2013-03-15 11:12:00,1.0,-11.0,29.99,SW,215,0.0,1.0,55,0.00,,,0.00,,2013-03-15 19:12:00,
2013-03-15 11:22:00,2.0,-11.0,29.99,SW,215,0.0,1.0,54,0.00,,,0.00,,2013-03-15 19:22:00,
2013-03-15 11:32:00,2.0,-11.0,29.99,SW,215,0.0,1.0,54,0.00,,,0.00,,2013-03-15 19:32:00,
2013-03-15 11:42:00,2.0,-11.0,29.99,SW,215,0.0,1.0,54,0.00,,,0.00,,2013-03-15 19:42:00,
2013-03-15 11:52:00,7.0,-8.0,29.98,SW,215,0.0,1.0,49,0.00,,,0.00,,2013-03-15 19:52:00,
2013-03-15 12:02:00,7.0,-8.0,29.98,SW,215,0.0,1.0,49,0.00,,,0.00,,2013-03-15 20:02:00,
2013-03-15 12:12:00,7.0,-8.0,29.98,SW,215,0.0,1.0,49,0.00,,,0.00,,2013-03-15 20:12:00,
2013-03-15 12:22:00,10.0,-7.0,29.96,SW,214,1.0,2.0,46,0.00,,,0.00,,2013-03-15 20:22:00,
2013-03-15 12:31:00,10.0,-7.0,29.96,SW,214,1.0,2.0,46,0.00,,,0.00,,2013-03-15 20:31:00,
2013-03-15 12:42:00,10.0,-7.0,29.96,SW,214,1.0,2.0,46,0.00,,,0.00,,2013-03-15 20:42:00,
2013-03-15 12:51:00,16.0,-6.0,29.96,South,173,1.0,6.0,37,0.00,,,0.00,,2013-03-15 20:51:00,
2013-03-15 13:02:00,16.0,-6.0,29.96,South,173,1.0,6.0,37,0.00,,,0.00,,2013-03-15 21:02:00,
2013-03-15 13:12:00,16.0,-6.0,29.96,South,173,1.0,6.0,37,0.00,,,0.00,,2013-03-15 21:12:00,
2013-03-15 13:22:00,18.0,-5.0,29.95,SSE,148,0.0,3.0,35,0.00,,,0.00,,2013-03-15 21:22:00,
2013-03-15 13:32:00,18.0,-5.0,29.95,SSE,148,0.0,3.0,35,0.00,,,0.00,,2013-03-15 21:32:00,
2013-03-15 13:43:00,18.0,-5.0,29.95,SSE,148,0.0,3.0,35,0.00,,,0.00,,2013-03-15 21:43:00,
2013-03-15 13:52:00,21.0,-3.0,29.93,East,85,1.0,4.0,34,0.00,,,0.00,,2013-03-15 21:52:00,
2013-03-15 14:22:00,24.0,0.0,29.93,ENE,59,1.0,4.0,35,0.00,,,0.00,,2013-03-15 22:22:00,
2013-03-15 14:52:00,24.0,-3.0,29.92,ESE,116,2.0,5.0,30,0.00,,,0.00,,2013-03-15 22:52:00,
2013-03-15 15:22:00,25.0,-1.0,29.91,South,184,2.0,13.0,31,0.00,,,0.00,,2013-03-15 23:22:00,
2013-03-15 15:52:00,26.0,0.0,29.90,SSE,150,1.0,5.0,31,0.00,,,0.00,,2013-03-15 23:52:00,
2013-03-15 16:22:00,26.0,-1.0,29.90,ESE,115,2.0,7.0,30,0.00,,,0.00,,2013-03-16 00:22:00,
2013-03-15 16:52:00,28.0,2.0,29.89,West,263,0.0,3.0,32,0.00,,,0.00,,2013-03-16 00:52:00,
2013-03-15 17:21:00,27.0,2.0,29.89,NNE,25,1.0,3.0,34,0.00,,,0.00,,2013-03-16 01:21:00,
2013-03-15 17:52:00,26.0,2.0,29.89,East,82,1.0,3.0,34,0.00,,,0.00,,2013-03-16 01:52:00,
2013-03-15 18:52:00,22.0,-3.0,29.89,SSW,197,1.0,3.0,33,0.00,,,0.00,,2013-03-16 02:52:00,
2013-03-15 19:02:00,22.0,-3.0,29.89,SSW,197,1.0,3.0,33,0.00,,,0.00,,2013-03-16 03:02:00,
2013-03-15 19:12:00,22.0,-3.0,29.89,SSW,197,1.0,3.0,33,0.00,,,0.00,,2013-03-16 03:12:00,
2013-03-15 19:21:00,19.0,-2.0,29.89,South,182,0.0,3.0,38,0.00,,,0.00,,2013-03-16 03:21:00,
2013-03-15 19:32:00,19.0,-2.0,29.89,South,182,0.0,3.0,38,0.00,,,0.00,,2013-03-16 03:32:00,
2013-03-15 19:43:00,19.0,-2.0,29.89,South,182,0.0,3.0,38,0.00,,,0.00,,2013-03-16 03:43:00,
2013-03-15 19:52:00,17.0,-3.0,29.90,SSE,161,0.0,2.0,41,0.00,,,0.00,,2013-03-16 03:52:00,
2013-03-15 20:02:00,17.0,-3.0,29.90,SSE,161,0.0,2.0,41,0.00,,,0.00,,2013-03-16 04:02:00,
2013-03-15 20:12:00,17.0,-3.0,29.90,SSE,161,0.0,2.0,41,0.00,,,0.00,,2013-03-16 04:12:00,
2013-03-15 20:22:00,15.0,-3.0,29.90,SSE,161,0.0,1.0,44,0.00,,,0.00,,2013-03-16 04:22:00,
2013-03-15 20:52:00,13.0,-5.0,29.91,SSW,194,0.0,1.0,44,0.00,,,0.00,,2013-03-16 04:52:00,
2013-03-15 21:02:00,13.0,-5.0,29.91,SSW,194,0.0,1.0,44,0.00,,,0.00,,2013-03-16 05:02:00,
2013-03-15 21:12:00,13.0,-5.0,29.91,SSW,194,0.0,1.0,44,0.00,,,0.00,,2013-03-16 05:12:00,
2013-03-15 21:21:00,11.0,-8.0,29.91,SSW,194,0.0,2.0,42,0.00,,,0.00,,2013-03-16 05:21:00,
2013-03-15 21:32:00,11.0,-8.0,29.91,SSW,194,0.0,2.0,42,0.00,,,0.00,,2013-03-16 05:32:00,
2013-03-15 21:42:00,11.0,-8.0,29.91,SSW,194,0.0,2.0,42,0.00,,,0.00,,2013-03-16 05:42:00,
2013-03-15 21:52:00,9.0,-6.0,29.92,SSW,194,0.0,1.0,49,0.00,,,0.00,,2013-03-16 05:52:00,
2013-03-15 22:02:00,9.0,-6.0,29.92,SSW,194,0.0,1.0,49,0.00,,,0.00,,2013-03-16 06:02:00,
2013-03-15 22:12:00,9.0,-6.0,29.92,SSW,194,0.0,1.0,49,0.00,,,0.00,,2013-03-16 06:12:00,
2013-03-15 22:21:00,7.0,-6.0,29.92,SSW,194,0.0,0.0,53,0.00,,,0.00,,2013-03-16 06:21:00,
2013-03-15 22:32:00,7.0,-6.0,29.92,SSW,194,0.0,0.0,53,0.00,,,0.00,,2013-03-16 06:32:00,
2013-03-15 22:42:00,7.0,-6.0,29.92,SSW,194,0.0,0.0,53,0.00,,,0.00,,2013-03-16 06:42:00,
2013-03-15 22:52:00,6.0,-7.0,29.93,SSW,194,0.0,0.0,55,0.00,,,0.00,,2013-03-16 06:52:00,
2013-03-15 23:02:00,6.0,-7.0,29.93,SSW,194,0.0,0.0,55,0.00,,,0.00,,2013-03-16 07:02:00,
2013-03-15 23:12:00,6.0,-7.0,29.93,SSW,194,0.0,0.0,55,0.00,,,0.00,,2013-03-16 07:12:00,
2013-03-15 23:22:00,4.0,-8.0,29.93,SSW,194,0.0,0.0,57,0.00,,,0.00,,2013-03-16 07:22:00,
2013-03-15 23:32:00,4.0,-8.0,29.93,SSW,194,0.0,0.0,57,0.00,,,0.00,,2013-03-16 07:32:00,
2013-03-15 23:42:00,4.0,-8.0,29.93,SSW,194,0.0,0.0,57,0.00,,,0.00,,2013-03-16 07:42:00,
2013-03-15 23:52:00,3.0,-8.0,29.94,SSW,194,0.0,0.0,58,0.00,,,0.00,,2013-03-16 07:52:00,